Time;durP1;ratioP1;P1;durP2;ratioP2;P2;SDS_P1;SDS_P2;PMS_P1;PMS_P2;Temp;Humidity;BMP_temperature;BMP_pressure;BME280_temperature;BME280_humidity;BME280_pressure;Samples;Min_cycle;Max_cycle;Signal;HPM_P1;HPM_P2
2022/02/12 00:00:37;;;;;;;8.57;5.25;;;;;;;;;;5110785;28;20023;-75
2022/02/12 00:03:04;;;;;;;8.85;5.28;;;;;;;;;;5110898;28;20114;-75
2022/02/12 00:05:31;;;;;;;9.85;5.68;;;;;;;;;;5110856;28;20445;-74
2022/02/12 00:07:58;;;;;;;6.82;4.32;;;;;;;;;;5110977;28;20536;-75
2022/02/12 00:10:27;;;;;;;10.32;5.80;;;;;;;;;;5110815;28;20032;-75
2022/02/12 00:12:53;;;;;;;8.90;4.40;;;;;;;;;;5114701;28;20043;-75
2022/02/12 00:15:19;;;;;;;11.10;4.85;;;;;;;;;;5114863;28;20446;-75
2022/02/12 00:17:45;;;;;;;9.85;4.90;;;;;;;;;;5114351;28;20030;-76
2022/02/12 00:20:12;;;;;;;9.38;5.03;;;;;;;;;;5114573;28;20024;-75
2022/02/12 00:22:38;;;;;;;9.85;4.78;;;;;;;;;;5114269;28;20024;-74
2022/02/12 00:25:04;;;;;;;7.68;4.85;;;;;;;;;;5114480;28;20027;-74
2022/02/12 00:27:30;;;;;;;9.32;5.38;;;;;;;;;;5095880;28;20054;-75
2022/02/12 00:29:57;;;;;;;9.80;5.20;;;;;;;;;;5114286;28;20026;-75
2022/02/12 00:32:23;;;;;;;9.60;5.47;;;;;;;;;;5095726;28;20020;-74
2022/02/12 00:34:49;;;;;;;10.10;5.53;;;;;;;;;;5114560;28;20376;-74
2022/02/12 00:37:15;;;;;;;8.85;4.40;;;;;;;;;;5114224;28;20027;-75
2022/02/12 00:39:42;;;;;;;9.10;4.82;;;;;;;;;;5114012;28;20367;-75
2022/02/12 00:42:08;;;;;;;10.43;4.75;;;;;;;;;;5114150;28;20027;-75
2022/02/12 00:44:34;;;;;;;7.25;4.60;;;;;;;;;;5113501;28;20027;-75
2022/02/12 00:47:00;;;;;;;8.50;4.85;;;;;;;;;;5114074;28;20472;-75
2022/02/12 00:49:26;;;;;;;8.40;4.60;;;;;;;;;;5095482;28;20053;-75
2022/02/12 00:51:52;;;;;;;10.35;4.70;;;;;;;;;;5113959;28;20077;-75
2022/02/12 00:54:19;;;;;;;9.20;4.55;;;;;;;;;;5114110;28;20035;-75
2022/02/12 00:56:45;;;;;;;8.18;5.47;;;;;;;;;;5095353;28;20020;-75
2022/02/12 00:59:11;;;;;;;10.43;5.75;;;;;;;;;;5095514;28;20030;-75
2022/02/12 01:01:37;;;;;;;10.55;5.10;;;;;;;;;;5113592;28;20031;-74
2022/02/12 01:04:04;;;;;;;8.30;4.65;;;;;;;;;;5095300;28;20050;-75
2022/02/12 01:06:31;;;;;;;8.57;4.53;;;;;;;;;;5095170;28;20027;-74
2022/02/12 01:08:57;;;;;;;8.45;4.25;;;;;;;;;;5095324;28;20479;-75
2022/02/12 01:11:23;;;;;;;8.05;5.05;;;;;;;;;;5113342;28;20081;-75
2022/02/12 01:13:49;;;;;;;9.23;4.75;;;;;;;;;;5095454;28;20581;-75
2022/02/12 01:16:15;;;;;;;6.55;4.43;;;;;;;;;;5113549;28;20032;-75
2022/02/12 01:18:42;;;;;;;8.32;4.40;;;;;;;;;;5094876;28;20020;-75
2022/02/12 01:21:08;;;;;;;8.20;4.72;;;;;;;;;;5113427;28;20451;-76
2022/02/12 01:23:35;;;;;;;8.23;5.18;;;;;;;;;;5094761;28;20055;-76
2022/02/12 01:26:01;;;;;;;7.82;4.68;;;;;;;;;;5094968;28;20437;-76
2022/02/12 01:28:27;;;;;;;8.70;4.88;;;;;;;;;;5112997;28;20072;-75
2022/02/12 01:30:53;;;;;;;8.15;4.57;;;;;;;;;;5094940;28;20031;-74
2022/02/12 01:33:19;;;;;;;7.20;4.60;;;;;;;;;;5113471;28;20031;-76
2022/02/12 01:35:45;;;;;;;7.07;4.43;;;;;;;;;;5094776;28;20019;-75
2022/02/12 01:38:11;;;;;;;8.13;4.13;;;;;;;;;;5094971;28;20019;-75
2022/02/12 01:40:37;;;;;;;10.25;4.95;;;;;;;;;;5094503;28;20084;-76
2022/02/12 01:43:07;;;;;;;8.43;4.50;;;;;;;;;;5113085;28;20026;-75
2022/02/12 01:45:33;;;;;;;8.55;4.43;;;;;;;;;;5094351;28;20470;-75
2022/02/12 01:47:59;;;;;;;7.63;4.10;;;;;;;;;;5112889;28;20027;-74
2022/02/12 01:50:25;;;;;;;8.98;4.72;;;;;;;;;;5094309;28;20028;-75
2022/02/12 01:52:52;;;;;;;7.95;4.38;;;;;;;;;;5094787;28;20065;-75
2022/02/12 01:55:18;;;;;;;8.35;4.30;;;;;;;;;;5094637;28;20034;-75
2022/02/12 01:57:45;;;;;;;7.43;4.80;;;;;;;;;;5112439;28;20019;-76
2022/02/12 02:00:12;;;;;;;8.75;4.75;;;;;;;;;;5112654;28;20066;-75
2022/02/12 02:02:38;;;;;;;7.25;4.18;;;;;;;;;;5112161;28;20030;-75
2022/02/12 02:05:05;;;;;;;6.95;4.28;;;;;;;;;;5094247;28;20491;-74
2022/02/12 02:07:31;;;;;;;8.93;4.95;;;;;;;;;;5112196;28;20055;-75
2022/02/12 02:09:57;;;;;;;7.78;4.15;;;;;;;;;;5094134;28;20118;-75
2022/02/12 02:12:23;;;;;;;8.20;4.97;;;;;;;;;;5112106;28;20055;-75
2022/02/12 02:14:49;;;;;;;5.63;3.95;;;;;;;;;;5094547;28;20098;-75
2022/02/12 02:17:15;;;;;;;6.65;4.88;;;;;;;;;;5094051;28;20023;-74
2022/02/12 02:19:41;;;;;;;5.45;3.53;;;;;;;;;;5112010;28;20075;-74
2022/02/12 02:22:10;;;;;;;8.68;4.18;;;;;;;;;;5112222;28;20023;-75
2022/02/12 02:24:36;;;;;;;7.00;4.15;;;;;;;;;;5111871;28;20032;-74
2022/02/12 02:27:05;;;;;;;7.30;4.20;;;;;;;;;;5112148;28;20030;-74
2022/02/12 02:29:31;;;;;;;6.47;4.05;;;;;;;;;;5111938;28;20049;-75
2022/02/12 02:31:57;;;;;;;8.38;4.40;;;;;;;;;;5112058;28;20379;-75
2022/02/12 02:34:24;;;;;;;9.30;4.80;;;;;;;;;;5111349;28;20035;-74
2022/02/12 02:36:52;;;;;;;10.20;4.30;;;;;;;;;;5112180;28;20019;-75
2022/02/12 02:39:18;;;;;;;7.40;4.25;;;;;;;;;;5093970;28;20505;-75
2022/02/12 02:41:44;;;;;;;9.23;4.45;;;;;;;;;;5111722;28;20027;-75
2022/02/12 02:44:10;;;;;;;7.45;4.07;;;;;;;;;;5093599;28;20487;-75
2022/02/12 02:46:36;;;;;;;11.25;4.43;;;;;;;;;;5111594;28;20024;-75
2022/02/12 02:49:02;;;;;;;10.07;4.72;;;;;;;;;;5111740;28;20051;-75
2022/02/12 02:56:57;;;;;;;7.20;3.83;;;;;;;;;;5111964;28;20034;-75
2022/02/12 02:59:23;;;;;;;7.90;4.78;;;;;;;;;;5111387;28;20023;-74
2022/02/12 03:01:52;;;;;;;6.80;3.78;;;;;;;;;;5093652;28;20035;-75
2022/02/12 03:04:19;;;;;;;7.00;3.70;;;;;;;;;;5093462;28;20032;-75
2022/02/12 03:06:45;;;;;;;7.82;4.10;;;;;;;;;;5111309;28;20027;-74
2022/02/12 03:09:11;;;;;;;7.18;4.15;;;;;;;;;;5111619;28;20548;-75
2022/02/12 03:11:37;;;;;;;7.20;4.00;;;;;;;;;;5111302;28;20024;-75
2022/02/12 03:14:03;;;;;;;7.40;3.95;;;;;;;;;;5111486;28;20039;-75
2022/02/12 03:16:29;;;;;;;7.72;4.28;;;;;;;;;;5111130;28;20107;-75
2022/02/12 03:18:55;;;;;;;8.60;3.80;;;;;;;;;;5093197;28;20110;-74
2022/02/12 03:21:21;;;;;;;6.32;4.00;;;;;;;;;;5093529;28;20038;-74
2022/02/12 03:23:48;;;;;;;6.82;4.10;;;;;;;;;;5093477;28;20020;-74
2022/02/12 03:26:14;;;;;;;6.20;3.90;;;;;;;;;;5111445;28;20023;-75
2022/02/12 03:28:40;;;;;;;6.70;3.90;;;;;;;;;;5092884;28;20023;-74
2022/02/12 03:31:07;;;;;;;7.93;4.13;;;;;;;;;;5111293;28;20024;-74
2022/02/12 03:33:33;;;;;;;6.72;4.13;;;;;;;;;;5111034;28;20064;-75
2022/02/12 03:35:59;;;;;;;7.30;4.28;;;;;;;;;;5111406;28;20031;-75
2022/02/12 03:38:26;;;;;;;9.55;4.07;;;;;;;;;;5111123;28;20191;-75
2022/02/12 03:40:54;;;;;;;6.43;3.95;;;;;;;;;;5111368;28;20032;-75
2022/02/12 03:43:20;;;;;;;5.68;3.50;;;;;;;;;;5111586;28;20027;-75
2022/02/12 03:45:46;;;;;;;5.63;3.38;;;;;;;;;;5111448;28;20024;-75
2022/02/12 03:48:13;;;;;;;9.20;4.18;;;;;;;;;;5115231;28;20452;-75
2022/02/12 03:50:39;;;;;;;7.78;3.55;;;;;;;;;;5096653;28;20077;-75
2022/02/12 03:53:06;;;;;;;6.03;3.90;;;;;;;;;;5096844;28;20020;-75
2022/02/12 03:55:36;;;;;;;8.90;3.65;;;;;;;;;;5114721;28;20036;-75
2022/02/12 03:58:03;;;;;;;7.45;4.07;;;;;;;;;;5115088;28;20085;-75
2022/02/12 04:00:29;;;;;;;6.18;3.35;;;;;;;;;;5096356;28;20102;-75
2022/02/12 04:02:55;;;;;;;7.60;3.70;;;;;;;;;;5114741;28;20481;-75
2022/02/12 04:05:24;;;;;;;6.68;3.72;;;;;;;;;;5115231;28;20019;-75
2022/02/12 04:07:50;;;;;;;6.40;3.50;;;;;;;;;;5096974;28;20495;-75
2022/02/12 04:10:16;;;;;;;8.35;4.15;;;;;;;;;;5096550;28;20026;-75
2022/02/12 04:12:43;;;;;;;8.77;4.40;;;;;;;;;;5114340;28;20035;-75
2022/02/12 04:15:09;;;;;;;6.85;3.85;;;;;;;;;;5096371;28;20390;-75
2022/02/12 04:17:36;;;;;;;8.18;3.92;;;;;;;;;;5114401;28;20111;-75
2022/02/12 04:20:04;;;;;;;5.88;3.30;;;;;;;;;;5114603;28;20034;-74
2022/02/12 04:22:31;;;;;;;8.20;4.47;;;;;;;;;;5095993;28;20383;-74
2022/02/12 04:24:57;;;;;;;6.15;3.53;;;;;;;;;;5114755;28;20027;-75
2022/02/12 04:27:23;;;;;;;6.07;3.45;;;;;;;;;;5112840;28;20380;-75
2022/02/12 04:29:49;;;;;;;4.80;3.00;;;;;;;;;;5096345;28;20027;-75
2022/02/12 04:32:15;;;;;;;6.18;3.25;;;;;;;;;;5114042;28;20024;-74
2022/02/12 04:34:41;;;;;;;6.68;3.92;;;;;;;;;;5114189;28;20032;-75
2022/02/12 04:37:07;;;;;;;6.68;3.33;;;;;;;;;;5114224;28;20028;-75
2022/02/12 04:39:33;;;;;;;7.07;3.80;;;;;;;;;;5113891;28;20024;-75
2022/02/12 04:41:59;;;;;;;6.07;3.55;;;;;;;;;;5114024;28;20393;-76
2022/02/12 04:44:25;;;;;;;7.85;3.33;;;;;;;;;;5113735;28;20059;-74
2022/02/12 04:46:51;;;;;;;6.43;3.25;;;;;;;;;;5114343;28;20047;-75
2022/02/12 04:49:17;;;;;;;7.53;4.00;;;;;;;;;;5113586;28;20085;-75
2022/02/12 04:51:43;;;;;;;7.10;3.67;;;;;;;;;;5113875;28;20027;-75
2022/02/12 04:54:09;;;;;;;9.13;4.03;;;;;;;;;;5095556;28;20036;-75
2022/02/12 04:56:35;;;;;;;5.55;3.00;;;;;;;;;;5094994;28;20023;-75
2022/02/12 04:59:01;;;;;;;7.63;3.83;;;;;;;;;;5113869;28;20443;-75
2022/02/12 05:01:27;;;;;;;7.90;3.50;;;;;;;;;;5113506;28;20095;-76
2022/02/12 05:03:53;;;;;;;5.22;3.33;;;;;;;;;;5113844;28;20058;-74
2022/02/12 05:06:21;;;;;;;5.93;3.05;;;;;;;;;;5113699;28;20482;-76
2022/02/12 05:08:47;;;;;;;5.68;3.15;;;;;;;;;;5095499;28;20378;-74
2022/02/12 05:11:13;;;;;;;7.47;3.60;;;;;;;;;;5113270;28;20471;-75
2022/02/12 05:13:39;;;;;;;7.90;3.40;;;;;;;;;;5095149;28;20168;-75
2022/02/12 05:16:06;;;;;;;5.90;3.22;;;;;;;;;;5113437;28;20051;-74
2022/02/12 05:18:32;;;;;;;7.30;3.50;;;;;;;;;;5113120;28;20031;-74
2022/02/12 05:20:58;;;;;;;5.68;2.97;;;;;;;;;;5113357;28;20081;-75
2022/02/12 05:23:24;;;;;;;7.50;3.22;;;;;;;;;;5113320;28;20051;-76
2022/02/12 05:25:50;;;;;;;5.00;3.15;;;;;;;;;;5113523;28;20498;-75
2022/02/12 05:28:16;;;;;;;5.80;3.00;;;;;;;;;;5112915;28;20016;-75
2022/02/12 05:30:43;;;;;;;5.05;2.92;;;;;;;;;;5113254;28;20039;-75
2022/02/12 05:33:09;;;;;;;6.35;3.38;;;;;;;;;;5094845;28;20016;-75
2022/02/12 05:35:35;;;;;;;6.35;3.20;;;;;;;;;;5094670;28;20061;-74
2022/02/12 05:38:01;;;;;;;5.63;3.25;;;;;;;;;;5094677;28;20051;-75
2022/02/12 05:40:27;;;;;;;7.18;3.50;;;;;;;;;;5112683;28;20056;-75
2022/02/12 05:42:54;;;;;;;6.05;3.22;;;;;;;;;;5113286;28;20024;-75
2022/02/12 05:45:20;;;;;;;5.07;3.10;;;;;;;;;;5112885;28;20475;-75
2022/02/12 05:47:46;;;;;;;5.00;2.55;;;;;;;;;;5112854;28;20062;-75
2022/02/12 05:50:12;;;;;;;5.72;2.97;;;;;;;;;;5112589;28;20475;-75
2022/02/12 05:52:38;;;;;;;5.97;2.95;;;;;;;;;;5112729;28;20055;-75
2022/02/12 05:55:05;;;;;;;6.45;3.03;;;;;;;;;;5112568;28;20034;-75
2022/02/12 05:57:31;;;;;;;5.82;3.25;;;;;;;;;;5112317;28;20024;-75
2022/02/12 05:59:57;;;;;;;6.78;3.20;;;;;;;;;;5112629;28;20028;-75
2022/02/12 06:02:23;;;;;;;6.30;3.25;;;;;;;;;;5112709;28;20393;-74
2022/02/12 06:04:49;;;;;;;6.55;3.20;;;;;;;;;;5112484;28;20027;-76
2022/02/12 06:07:15;;;;;;;5.05;2.95;;;;;;;;;;5112112;28;20023;-75
2022/02/12 06:09:41;;;;;;;7.70;3.15;;;;;;;;;;5111781;28;20106;-75
2022/02/12 06:12:07;;;;;;;5.53;2.85;;;;;;;;;;5112417;28;20141;-75
2022/02/12 06:14:33;;;;;;;6.70;3.00;;;;;;;;;;5112035;28;20030;-74
2022/02/12 06:17:00;;;;;;;7.13;3.20;;;;;;;;;;5094004;28;20016;-74
2022/02/12 06:19:26;;;;;;;6.47;3.03;;;;;;;;;;5112304;28;20023;-73
2022/02/12 06:21:52;;;;;;;6.40;3.15;;;;;;;;;;5112507;28;20027;-74
2022/02/12 06:24:19;;;;;;;7.63;3.50;;;;;;;;;;5111813;28;20023;-74
2022/02/12 06:26:48;;;;;;;9.10;2.83;;;;;;;;;;5093768;28;20020;-75
2022/02/12 06:29:15;;;;;;;7.47;3.22;;;;;;;;;;5093549;28;20054;-75
2022/02/12 06:31:42;;;;;;;5.72;2.90;;;;;;;;;;5093733;28;20028;-76
2022/02/12 06:34:08;;;;;;;9.52;3.55;;;;;;;;;;5093647;28;20441;-75
2022/02/12 06:36:34;;;;;;;7.22;3.80;;;;;;;;;;5111597;28;20027;-79
2022/02/12 06:39:00;;;;;;;6.63;2.72;;;;;;;;;;5093708;28;20031;-73
2022/02/12 06:41:26;;;;;;;7.13;3.47;;;;;;;;;;5111891;28;20038;-74
2022/02/12 06:43:52;;;;;;;6.93;3.25;;;;;;;;;;5111811;28;20020;-74
2022/02/12 06:46:18;;;;;;;8.05;2.58;;;;;;;;;;5111597;28;21029;-75
2022/02/12 06:48:45;;;;;;;5.95;2.88;;;;;;;;;;5111740;28;20157;-74
2022/02/12 06:51:14;;;;;;;6.60;3.38;;;;;;;;;;5093088;28;20402;-74
2022/02/12 06:53:40;;;;;;;5.65;3.33;;;;;;;;;;5111694;28;20028;-74
2022/02/12 06:56:06;;;;;;;5.93;2.63;;;;;;;;;;5111770;28;20024;-74
2022/02/12 06:58:32;;;;;;;8.52;3.50;;;;;;;;;;5111392;28;20053;-74
2022/02/12 07:00:59;;;;;;;5.03;2.97;;;;;;;;;;5111759;28;20102;-74
2022/02/12 07:03:25;;;;;;;6.55;2.70;;;;;;;;;;5092610;28;20032;-73
2022/02/12 07:05:51;;;;;;;8.38;3.17;;;;;;;;;;5109495;28;20027;-74
2022/02/12 07:08:17;;;;;;;6.07;3.33;;;;;;;;;;5091934;28;20051;-73
2022/02/12 07:10:43;;;;;;;5.95;3.03;;;;;;;;;;5111271;28;20052;-73
2022/02/12 07:13:10;;;;;;;7.35;3.08;;;;;;;;;;5111319;28;20024;-73
2022/02/12 07:15:36;;;;;;;5.95;3.42;;;;;;;;;;5111416;28;20036;-74
2022/02/12 07:18:02;;;;;;;7.40;3.10;;;;;;;;;;5111443;28;20157;-74
2022/02/12 07:20:28;;;;;;;6.32;3.38;;;;;;;;;;5094980;28;20031;-74
2022/02/12 07:22:54;;;;;;;5.55;2.88;;;;;;;;;;5115836;28;20085;-73
2022/02/12 07:25:20;;;;;;;7.45;2.55;;;;;;;;;;5097062;28;20027;-74
2022/02/12 07:27:47;;;;;;;6.70;3.00;;;;;;;;;;5115575;28;20031;-74
2022/02/12 07:30:14;;;;;;;6.55;3.05;;;;;;;;;;5096970;28;20058;-74
2022/02/12 07:32:41;;;;;;;9.52;2.92;;;;;;;;;;5115452;28;20024;-74
2022/02/12 07:35:08;;;;;;;7.10;2.97;;;;;;;;;;5097069;28;20055;-73
2022/02/12 07:37:35;;;;;;;7.15;3.58;;;;;;;;;;5096783;28;20126;-75
2022/02/12 07:40:01;;;;;;;10.15;3.30;;;;;;;;;;5117453;28;20027;-73
2022/02/12 07:42:27;;;;;;;7.80;2.75;;;;;;;;;;5115139;28;20110;-75
2022/02/12 07:44:53;;;;;;;6.13;2.88;;;;;;;;;;5115290;28;20024;-76
2022/02/12 07:47:19;;;;;;;7.35;2.88;;;;;;;;;;5114847;28;20016;-74
2022/02/12 07:49:45;;;;;;;7.20;2.75;;;;;;;;;;5115231;28;20076;-74
2022/02/12 07:52:11;;;;;;;6.07;2.95;;;;;;;;;;5114824;28;20456;-74
2022/02/12 07:54:37;;;;;;;9.63;3.08;;;;;;;;;;5115010;28;20024;-74
2022/02/12 07:57:04;;;;;;;7.38;2.63;;;;;;;;;;5114984;28;20023;-74
2022/02/12 07:59:30;;;;;;;8.38;2.53;;;;;;;;;;5096596;28;20111;-75
2022/02/12 08:01:56;;;;;;;7.50;2.83;;;;;;;;;;5114411;28;20027;-74
2022/02/12 08:04:22;;;;;;;5.95;2.83;;;;;;;;;;5096137;28;20063;-75
2022/02/12 08:09:32;;;;;;;5.50;2.25;;;;;;;;;;5114751;28;20062;-74
2022/02/12 08:12:11;;;;;;;11.77;3.28;;;;;;;;;;5096566;28;20027;-73
2022/02/12 08:14:37;;;;;;;13.40;3.30;;;;;;;;;;5096015;28;20063;-74
2022/02/12 08:17:03;;;;;;;12.52;2.72;;;;;;;;;;5114647;28;20372;-75
2022/02/12 08:19:29;;;;;;;6.43;2.80;;;;;;;;;;5114659;28;20098;-74
2022/02/12 08:21:55;;;;;;;10.77;3.08;;;;;;;;;;5096364;28;20110;-75
2022/02/12 08:24:21;;;;;;;8.88;2.90;;;;;;;;;;5114308;28;20099;-76
2022/02/12 08:26:47;;;;;;;7.85;2.83;;;;;;;;;;5096176;28;20035;-74
2022/02/12 08:29:13;;;;;;;13.88;3.88;;;;;;;;;;5114099;28;20521;-73
2022/02/12 08:31:39;;;;;;;10.23;3.33;;;;;;;;;;5113535;28;20028;-73
2022/02/12 08:34:05;;;;;;;12.43;3.17;;;;;;;;;;5114260;28;20034;-74
2022/02/12 08:36:31;;;;;;;9.95;2.50;;;;;;;;;;5096104;28;20118;-74
2022/02/12 08:38:58;;;;;;;5.03;2.47;;;;;;;;;;5114366;28;20033;-73
2022/02/12 08:41:24;;;;;;;5.80;2.83;;;;;;;;;;5113855;28;20034;-74
2022/02/12 08:43:50;;;;;;;9.90;2.47;;;;;;;;;;5114074;28;20028;-75
2022/02/12 08:46:16;;;;;;;9.65;2.85;;;;;;;;;;5113690;28;20050;-74
2022/02/12 08:48:42;;;;;;;11.20;2.78;;;;;;;;;;5113887;28;20031;-75
2022/02/12 08:51:09;;;;;;;4.80;2.90;;;;;;;;;;5113874;28;20020;-73
2022/02/12 08:53:35;;;;;;;9.70;2.85;;;;;;;;;;5113834;28;20059;-74
2022/02/12 08:56:01;;;;;;;9.25;2.67;;;;;;;;;;5114163;28;20150;-74
2022/02/12 08:58:27;;;;;;;9.95;2.72;;;;;;;;;;5113541;28;20055;-76
2022/02/12 09:00:53;;;;;;;8.82;2.60;;;;;;;;;;5113714;28;20494;-75
2022/02/12 09:03:19;;;;;;;6.80;2.83;;;;;;;;;;5112765;28;20027;-76
2022/02/12 09:05:45;;;;;;;6.88;2.53;;;;;;;;;;5113645;28;20024;-75
2022/02/12 09:08:12;;;;;;;5.05;2.28;;;;;;;;;;5113317;28;20034;-75
2022/02/12 09:10:38;;;;;;;5.93;1.98;;;;;;;;;;5113278;28;20073;-75
2022/02/12 09:13:04;;;;;;;6.07;2.53;;;;;;;;;;5113608;28;20034;-74
2022/02/12 09:15:30;;;;;;;4.72;1.90;;;;;;;;;;5113416;28;20043;-74
2022/02/12 09:17:56;;;;;;;6.53;2.22;;;;;;;;;;5095033;28;20019;-75
2022/02/12 09:20:22;;;;;;;9.50;2.67;;;;;;;;;;5113096;28;20494;-75
2022/02/12 09:22:48;;;;;;;5.28;2.20;;;;;;;;;;5113260;28;20028;-74
2022/02/12 09:25:14;;;;;;;8.48;2.45;;;;;;;;;;5094599;28;20027;-75
2022/02/12 09:27:40;;;;;;;5.00;1.80;;;;;;;;;;5113266;28;20030;-74
2022/02/12 09:30:07;;;;;;;8.63;2.97;;;;;;;;;;5113149;28;20027;-75
2022/02/12 09:32:33;;;;;;;11.32;2.58;;;;;;;;;;5113187;28;20084;-74
2022/02/12 09:34:59;;;;;;;6.15;2.10;;;;;;;;;;5113216;28;20036;-75
2022/02/12 09:37:26;;;;;;;4.63;2.10;;;;;;;;;;5094489;28;20394;-75
2022/02/12 09:39:52;;;;;;;5.40;2.17;;;;;;;;;;5112861;28;20103;-76
2022/02/12 09:42:18;;;;;;;6.05;1.98;;;;;;;;;;5112529;28;20051;-75
2022/02/12 09:44:44;;;;;;;13.90;2.20;;;;;;;;;;5111709;28;20518;-74
2022/02/12 09:47:13;;;;;;;7.28;2.40;;;;;;;;;;5094410;28;20030;-73
2022/02/12 09:49:41;;;;;;;4.70;1.90;;;;;;;;;;5094629;28;20023;-75
2022/02/12 09:52:10;;;;;;;7.13;2.35;;;;;;;;;;5112833;28;20023;-76
2022/02/12 09:54:36;;;;;;;7.10;2.50;;;;;;;;;;5112705;28;20469;-76
2022/02/12 09:57:02;;;;;;;9.68;2.20;;;;;;;;;;5112488;28;20043;-73
2022/02/12 09:59:28;;;;;;;10.90;2.63;;;;;;;;;;5112067;28;20423;-74
2022/02/12 10:01:54;;;;;;;5.53;1.75;;;;;;;;;;5112677;28;20028;-74
2022/02/12 10:04:21;;;;;;;6.05;1.90;;;;;;;;;;5111800;28;20050;-75
2022/02/12 10:06:48;;;;;;;5.55;2.28;;;;;;;;;;5111972;28;20387;-73
2022/02/12 10:09:14;;;;;;;7.05;2.10;;;;;;;;;;5094122;28;20031;-74
2022/02/12 10:26:36;;;;;;;14.30;3.25;;;;;;;;;;5087384;28;20428;-78
2022/02/12 10:29:04;;;;;;;20.30;2.90;;;;;;;;;;5085158;28;20025;-78
2022/02/12 10:31:30;;;;;;;10.00;2.30;;;;;;;;;;5086989;28;20786;-77
2022/02/12 10:33:56;;;;;;;8.93;2.50;;;;;;;;;;5086484;28;20031;-76
2022/02/12 10:36:22;;;;;;;11.10;2.03;;;;;;;;;;5087844;28;20081;-78
2022/02/12 10:38:52;;;;;;;10.30;2.72;;;;;;;;;;5087015;28;20210;-77
2022/02/12 10:41:19;;;;;;;8.50;2.40;;;;;;;;;;5086683;28;20056;-78
2022/02/12 10:43:46;;;;;;;4.50;1.92;;;;;;;;;;5088311;28;20027;-78
2022/02/12 10:46:13;;;;;;;8.52;2.70;;;;;;;;;;5088057;28;20403;-77
2022/02/12 10:48:40;;;;;;;9.10;2.70;;;;;;;;;;5085584;28;20017;-74
2022/02/12 10:51:11;;;;;;;11.50;2.53;;;;;;;;;;5088256;28;20032;-74
2022/02/12 10:53:37;;;;;;;7.10;2.30;;;;;;;;;;5088364;28;20043;-74
2022/02/12 10:56:04;;;;;;;12.75;2.55;;;;;;;;;;5086635;28;20467;-72
2022/02/12 10:58:31;;;;;;;4.18;1.98;;;;;;;;;;5087765;28;20033;-73
2022/02/12 11:00:57;;;;;;;6.53;2.30;;;;;;;;;;5086935;28;20107;-72
2022/02/12 11:03:25;;;;;;;6.53;2.20;;;;;;;;;;5086913;28;20499;-73
2022/02/12 11:05:52;;;;;;;5.97;2.10;;;;;;;;;;5087559;28;20032;-74
2022/02/12 11:08:22;;;;;;;5.90;2.60;;;;;;;;;;5086402;28;20031;-73
2022/02/12 11:10:48;;;;;;;4.53;1.85;;;;;;;;;;5087956;28;20073;-74
2022/02/12 11:13:14;;;;;;;6.15;2.33;;;;;;;;;;5086246;28;20388;-75
2022/02/12 11:15:41;;;;;;;5.55;2.22;;;;;;;;;;5086438;28;20036;-74
2022/02/12 11:18:11;;;;;;;9.43;2.25;;;;;;;;;;5087800;28;20020;-72
2022/02/12 11:20:41;;;;;;;3.60;1.80;;;;;;;;;;5087842;28;20368;-74
2022/02/12 11:23:27;;;;;;;5.05;1.80;;;;;;;;;;5087771;28;20024;-73
2022/02/12 11:25:54;;;;;;;5.93;2.08;;;;;;;;;;5087284;28;20032;-73
2022/02/12 11:28:27;;;;;;;6.47;2.40;;;;;;;;;;5087195;28;20498;-74
2022/02/12 11:31:13;;;;;;;6.30;1.73;;;;;;;;;;5086113;28;20106;-75
2022/02/12 11:33:39;;;;;;;5.60;1.40;;;;;;;;;;5086088;28;20025;-73
2022/02/12 11:36:11;;;;;;;6.38;2.38;;;;;;;;;;5084226;28;20082;-74
2022/02/12 11:38:38;;;;;;;9.73;2.20;;;;;;;;;;5073787;28;20480;-74
2022/02/12 11:41:24;;;;;;;8.20;2.30;;;;;;;;;;5074165;28;20099;-74
2022/02/12 11:43:51;;;;;;;5.18;2.08;;;;;;;;;;5073838;28;20032;-76
2022/02/12 11:46:35;;;;;;;8.82;2.72;;;;;;;;;;5072204;28;20067;-75
2022/02/12 11:49:20;;;;;;;5.65;2.35;;;;;;;;;;5073626;28;20021;-75
2022/02/12 11:51:46;;;;;;;3.70;1.77;;;;;;;;;;5072356;28;20523;-76
2022/02/12 11:54:32;;;;;;;7.20;2.25;;;;;;;;;;5073400;28;20021;-76
2022/02/12 11:56:58;;;;;;;;;;;;;;;;;;5074069;28;20024;-75
2022/02/12 11:59:24;;;;;;;;;;;;;;;;;;5072493;28;20424;-75
2022/02/12 12:01:52;;;;;;;6.22;2.10;;;;;;;;;;5073534;28;19915;-76
2022/02/12 12:04:18;;;;;;;6.05;2.10;;;;;;;;;;5073284;28;20028;-76
2022/02/12 12:07:07;;;;;;;5.13;1.92;;;;;;;;;;5073383;28;20031;-75
2022/02/12 12:09:35;;;;;;;4.50;1.70;;;;;;;;;;5072130;28;20100;-72
2022/02/12 12:12:17;;;;;;;7.20;2.88;;;;;;;;;;5073311;28;20036;-73
2022/02/12 12:14:44;;;;;;;6.82;2.15;;;;;;;;;;5073288;28;20035;-75
2022/02/12 12:17:10;;;;;;;4.50;1.95;;;;;;;;;;5073131;28;20033;-72
2022/02/12 12:19:40;;;;;;;4.75;1.83;;;;;;;;;;5073408;28;20523;-75
2022/02/12 12:22:08;;;;;;;4.63;2.00;;;;;;;;;;5073457;28;20039;-74
2022/02/12 12:24:34;;;;;;;6.28;2.03;;;;;;;;;;5072910;28;20021;-75
2022/02/12 12:27:01;;;;;;;5.43;1.70;;;;;;;;;;5071808;28;20039;-76
2022/02/12 12:32:16;;;;;;;3.37;1.63;;;;;;;;;;5072953;28;20120;-75
2022/02/12 12:34:50;;;;;;;5.93;1.95;;;;;;;;;;5072806;28;20035;-76
2022/02/12 12:37:16;;;;;;;7.65;2.25;;;;;;;;;;5072599;28;20052;-73
2022/02/12 12:39:43;;;;;;;3.88;1.45;;;;;;;;;;5072698;28;20460;-75
2022/02/12 12:42:23;;;;;;;6.38;2.05;;;;;;;;;;5072629;28;20020;-73
2022/02/12 12:45:00;;;;;;;3.55;1.73;;;;;;;;;;5072674;28;20393;-73
2022/02/12 12:47:28;;;;;;;4.82;1.92;;;;;;;;;;5071882;28;20051;-73
2022/02/12 12:49:55;;;;;;;2.85;1.40;;;;;;;;;;5072018;28;20092;-75
2022/02/12 12:52:23;;;;;;;4.90;1.45;;;;;;;;;;5072202;28;20431;-73
2022/02/12 12:54:50;;;;;;;3.85;1.75;;;;;;;;;;5071086;28;20029;-75
2022/02/12 12:57:16;;;;;;;3.60;1.30;;;;;;;;;;5072058;28;20032;-75
2022/02/12 12:59:52;;;;;;;13.73;2.22;;;;;;;;;;5070113;28;20512;-73
2022/02/12 13:02:19;;;;;;;4.85;1.58;;;;;;;;;;5070348;28;20044;-74
2022/02/12 13:04:49;;;;;;;5.75;1.52;;;;;;;;;;5072352;28;20021;-73
2022/02/12 13:07:17;;;;;;;8.25;1.60;;;;;;;;;;5071350;28;20025;-74
2022/02/12 13:09:44;;;;;;;15.93;2.03;;;;;;;;;;5072095;28;20085;-73
2022/02/12 13:12:25;;;;;;;5.75;1.63;;;;;;;;;;5072039;28;20028;-72
2022/02/12 13:14:52;;;;;;;5.97;1.60;;;;;;;;;;5072254;28;20093;-75
2022/02/12 13:17:18;;;;;;;10.45;1.80;;;;;;;;;;5071727;28;20056;-73
2022/02/12 13:19:44;;;;;;;8.40;3.10;;;;;;;;;;5070687;28;20376;-74
2022/02/12 13:22:13;;;;;;;11.88;2.47;;;;;;;;;;5071604;28;20465;-74
2022/02/12 13:24:40;;;;;;;4.38;2.17;;;;;;;;;;5071802;28;20024;-75
2022/02/12 13:27:09;;;;;;;8.52;2.20;;;;;;;;;;5071113;28;20110;-74
2022/02/12 13:29:36;;;;;;;5.07;2.00;;;;;;;;;;5071955;28;20028;-76
2022/02/12 13:32:05;;;;;;;7.18;1.85;;;;;;;;;;5071673;28;20035;-75
2022/02/12 13:34:32;;;;;;;7.68;2.22;;;;;;;;;;5070793;28;20408;-75
2022/02/12 13:36:59;;;;;;;7.68;1.85;;;;;;;;;;5071461;28;20032;-74
2022/02/12 13:39:25;;;;;;;6.55;2.47;;;;;;;;;;5071194;28;20021;-73
2022/02/12 13:41:59;;;;;;;4.90;1.77;;;;;;;;;;5071060;28;20024;-73
2022/02/12 13:44:35;;;;;;;6.28;2.17;;;;;;;;;;5071134;28;20016;-74
2022/02/12 13:47:07;;;;;;;7.22;2.20;;;;;;;;;;5071542;28;20040;-75
2022/02/12 13:49:37;;;;;;;7.55;2.75;;;;;;;;;;5070353;28;20016;-75
2022/02/12 13:52:04;;;;;;;19.50;4.80;;;;;;;;;;5071139;28;20480;-74
2022/02/12 13:54:31;;;;;;;14.65;5.35;;;;;;;;;;5070988;28;20039;-75
2022/02/12 13:57:02;;;;;;;14.45;5.05;;;;;;;;;;5072363;28;20503;-77
2022/02/12 13:59:29;;;;;;;27.92;6.97;;;;;;;;;;5070865;28;20032;-74
2022/02/12 14:01:55;;;;;;;23.17;6.90;;;;;;;;;;5071351;28;20032;-76
2022/02/12 14:04:21;;;;;;;17.38;6.43;;;;;;;;;;5071092;28;20070;-76
2022/02/12 14:06:47;;;;;;;22.20;5.65;;;;;;;;;;5071309;28;20472;-75
2022/02/12 14:09:15;;;;;;;16.90;4.90;;;;;;;;;;5071010;28;20054;-76
2022/02/12 14:11:44;;;;;;;16.27;5.07;;;;;;;;;;5069963;28;20028;-76
2022/02/12 14:14:11;;;;;;;12.95;4.30;;;;;;;;;;5070933;28;20024;-74
2022/02/12 14:16:37;;;;;;;12.68;3.35;;;;;;;;;;5071577;28;20039;-76
2022/02/12 14:19:03;;;;;;;10.00;3.10;;;;;;;;;;5071079;28;20021;-75
2022/02/12 14:21:29;;;;;;;9.90;3.90;;;;;;;;;;5070919;28;20024;-74
2022/02/12 14:23:56;;;;;;;10.52;3.28;;;;;;;;;;5071064;28;20017;-74
2022/02/12 14:26:23;;;;;;;15.88;3.67;;;;;;;;;;5070632;28;20032;-75
2022/02/12 14:28:49;;;;;;;15.50;3.13;;;;;;;;;;5071066;28;20103;-76
2022/02/12 14:31:15;;;;;;;18.52;2.95;;;;;;;;;;5070873;28;20476;-78
2022/02/12 14:33:42;;;;;;;12.80;2.33;;;;;;;;;;5069821;28;20032;-75
2022/02/12 14:36:08;;;;;;;7.32;2.13;;;;;;;;;;5071324;28;20067;-76
2022/02/12 14:38:33;;;;;;;14.85;3.05;;;;;;;;;;5069935;28;20029;-77
2022/02/12 14:41:00;;;;;;;13.52;2.80;;;;;;;;;;5070956;28;20032;-76
2022/02/12 14:43:26;;;;;;;11.38;2.88;;;;;;;;;;5068912;28;20509;-76
2022/02/12 14:45:52;;;;;;;9.77;3.13;;;;;;;;;;5070997;28;20439;-76
2022/02/12 14:48:18;;;;;;;12.68;2.72;;;;;;;;;;5069845;28;20029;-79
2022/02/12 14:50:45;;;;;;;9.15;2.30;;;;;;;;;;5069383;28;20056;-76
2022/02/12 14:53:12;;;;;;;8.82;2.65;;;;;;;;;;5069747;28;20029;-74
2022/02/12 14:55:38;;;;;;;12.63;2.25;;;;;;;;;;5070519;28;20029;-75
2022/02/12 14:58:04;;;;;;;11.32;2.38;;;;;;;;;;5070682;28;20032;-75
2022/02/12 15:00:30;;;;;;;5.78;1.60;;;;;;;;;;5069122;28;20060;-75
2022/02/12 15:02:57;;;;;;;20.95;2.63;;;;;;;;;;5068437;28;20106;-76
2022/02/12 15:05:23;;;;;;;7.80;2.30;;;20.80;48.50;;;;;;5067486;28;20032;-78